createdAt,value
2019-03-29T00:00:20.768Z,8.40
2019-03-29T00:05:22.251Z,8.40
2019-03-29T00:10:24.105Z,8.40
2019-03-29T00:15:25.604Z,8.40
2019-03-29T00:20:27.124Z,8.50
2019-03-29T00:25:29.011Z,8.50
2019-03-29T00:30:30.520Z,8.50
2019-03-29T00:35:32.042Z,8.50
2019-03-29T00:40:33.539Z,8.50
2019-03-29T00:45:35.431Z,8.50
2019-03-29T00:50:36.904Z,8.50
2019-03-29T00:55:38.566Z,8.50
2019-03-29T01:00:40.427Z,8.50
2019-03-29T01:05:41.998Z,8.50
2019-03-29T01:10:43.951Z,8.50
2019-03-29T01:15:45.497Z,8.50
2019-03-29T01:20:47.979Z,8.60
2019-03-29T01:25:49.943Z,8.50
2019-03-29T01:30:51.430Z,8.60
2019-03-29T01:35:53.227Z,8.60
2019-03-29T01:40:55.054Z,8.60
2019-03-29T01:45:56.623Z,8.50
2019-03-29T01:50:58.133Z,8.50
2019-03-29T01:55:59.817Z,8.60
2019-03-29T02:01:01.319Z,8.60
2019-03-29T02:06:03.356Z,8.60
2019-03-29T02:11:04.868Z,8.60
2019-03-29T02:16:06.342Z,8.70
2019-03-29T02:21:07.932Z,8.60
2019-03-29T02:26:09.431Z,8.70
2019-03-29T02:31:11.301Z,8.70
2019-03-29T02:36:12.900Z,8.60
2019-03-29T02:41:14.408Z,8.60
2019-03-29T02:46:16.069Z,8.60
2019-03-29T02:51:17.991Z,8.70
2019-03-29T02:56:19.836Z,8.70
2019-03-29T03:01:21.439Z,8.70
2019-03-29T03:06:23.068Z,8.70
2019-03-29T03:11:24.559Z,8.70
2019-03-29T03:16:26.239Z,8.80
2019-03-29T03:21:28.177Z,8.70
2019-03-29T03:26:29.977Z,8.70
2019-03-29T03:31:31.553Z,8.80
2019-03-29T03:36:33.247Z,8.80
2019-03-29T03:41:35.207Z,8.80
2019-03-29T03:46:36.712Z,8.80
2019-03-29T03:51:38.744Z,8.80
2019-03-29T03:56:41.250Z,8.80
2019-03-29T04:01:42.822Z,8.90
2019-03-29T04:06:44.326Z,8.80
2019-03-29T04:11:46.258Z,8.80
2019-03-29T04:16:47.793Z,8.90
2019-03-29T04:21:50.393Z,8.80
2019-03-29T04:26:53.428Z,8.90
2019-03-29T04:31:54.940Z,8.80
2019-03-29T04:36:56.460Z,8.80
2019-03-29T04:41:57.981Z,8.80
2019-03-29T04:46:59.796Z,8.80
2019-03-29T04:52:01.718Z,8.80
2019-03-29T04:57:03.214Z,8.90
2019-03-29T05:02:05.125Z,8.90
2019-03-29T05:07:06.745Z,8.90
2019-03-29T05:12:08.313Z,8.90
2019-03-29T05:17:10.130Z,8.90
2019-03-29T05:22:11.661Z,8.90
2019-03-29T05:27:13.465Z,8.90
2019-03-29T05:32:15.056Z,8.90
2019-03-29T05:37:16.543Z,8.90
2019-03-29T05:42:18.700Z,9.00
2019-03-29T05:47:20.654Z,9.00
2019-03-29T05:52:22.147Z,9.00
2019-03-29T05:57:23.637Z,9.00
2019-03-29T06:02:25.584Z,9.10
2019-03-29T06:07:27.030Z,9.10
2019-03-29T06:12:28.592Z,9.20
2019-03-29T06:17:30.683Z,9.20
2019-03-29T06:22:32.236Z,9.20
2019-03-29T06:27:34.189Z,9.30
2019-03-29T06:32:35.770Z,9.50
2019-03-29T06:37:41.973Z,9.60
2019-03-29T06:42:43.570Z,9.60
2019-03-29T06:47:44.961Z,9.70
2019-03-29T06:52:46.795Z,9.70
2019-03-29T06:57:48.671Z,9.80
2019-03-29T07:02:50.187Z,9.80
2019-03-29T07:07:51.696Z,9.80
2019-03-29T07:12:56.274Z,10.00
2019-03-29T07:17:56.714Z,10.20
2019-03-29T07:22:58.226Z,10.10
2019-03-29T07:28:00.033Z,10.20
2019-03-29T07:33:01.515Z,10.30
2019-03-29T07:38:02.986Z,10.30
2019-03-29T07:43:04.466Z,10.40
2019-03-29T07:48:06.338Z,10.60
2019-03-29T07:53:08.279Z,10.70
2019-03-29T07:58:09.754Z,10.60
2019-03-29T08:03:11.211Z,10.70
2019-03-29T08:08:23.852Z,10.80
2019-03-29T08:13:16.806Z,10.90
2019-03-29T08:18:18.588Z,11.20
2019-03-29T08:23:20.201Z,11.30
2019-03-29T08:28:21.839Z,11.10
2019-03-29T08:33:23.312Z,11.20
2019-03-29T08:38:24.904Z,11.40
2019-03-29T08:43:26.393Z,11.30
2019-03-29T08:48:27.860Z,11.30
2019-03-29T08:53:29.329Z,11.30
2019-03-29T08:58:30.898Z,11.40
2019-03-29T09:03:32.379Z,11.60
2019-03-29T09:08:34.166Z,11.60
2019-03-29T09:13:35.801Z,11.60
2019-03-29T09:18:37.270Z,11.70
2019-03-29T09:23:38.726Z,11.60
2019-03-29T09:28:40.242Z,11.70
2019-03-29T09:33:41.703Z,11.70
2019-03-29T09:38:43.824Z,11.80
2019-03-29T09:43:45.736Z,11.90
2019-03-29T09:48:47.226Z,11.80
2019-03-29T09:53:48.715Z,11.80
2019-03-29T09:58:50.325Z,11.90
2019-03-29T10:03:51.910Z,11.90
2019-03-29T10:08:53.693Z,11.70
2019-03-29T10:13:55.260Z,11.50
2019-03-29T10:18:57.155Z,11.60
2019-03-29T10:23:58.643Z,11.70
2019-03-29T10:29:00.264Z,11.70
2019-03-29T10:34:01.760Z,11.80
2019-03-29T10:39:10.288Z,11.80
2019-03-29T10:44:11.709Z,11.90
2019-03-29T10:49:13.262Z,12.00
2019-03-29T10:54:15.616Z,11.90
2019-03-29T10:59:27.169Z,12.20
2019-03-29T11:04:21.099Z,12.30
2019-03-29T11:09:23.318Z,12.30
2019-03-29T11:14:24.839Z,12.20
2019-03-29T11:19:26.314Z,12.10
2019-03-29T11:24:27.790Z,12.10
2019-03-29T11:29:29.336Z,12.10
2019-03-29T11:34:30.803Z,12.30
2019-03-29T11:39:32.269Z,12.30
2019-03-29T11:44:33.727Z,12.40
2019-03-29T11:49:35.209Z,12.50
2019-03-29T11:54:36.686Z,12.50
2019-03-29T11:59:40.162Z,12.70
2019-03-29T12:04:41.892Z,13.20
2019-03-29T12:09:43.372Z,13.10
2019-03-29T12:14:44.945Z,13.00
2019-03-29T12:19:46.430Z,12.90
2019-03-29T12:24:47.890Z,12.70
2019-03-29T12:29:49.758Z,12.40
2019-03-29T12:34:51.243Z,12.50
2019-03-29T12:39:52.716Z,12.60
2019-03-29T12:44:54.212Z,12.80
2019-03-29T12:49:55.690Z,12.80
2019-03-29T12:54:57.554Z,12.60
2019-03-29T12:59:59.164Z,12.70
2019-03-29T13:05:00.631Z,12.70
2019-03-29T13:10:06.498Z,12.70
2019-03-29T13:15:08.524Z,12.80
2019-03-29T13:20:10.496Z,12.70
2019-03-29T13:25:12.672Z,12.90
2019-03-29T13:30:17.145Z,12.70
2019-03-29T13:35:18.508Z,12.60
2019-03-29T13:40:21.405Z,12.60
2019-03-29T13:45:23.021Z,12.60
2019-03-29T13:50:24.488Z,12.80
2019-03-29T13:55:26.310Z,12.80
2019-03-29T14:00:27.863Z,12.70
2019-03-29T14:05:29.954Z,12.90
2019-03-29T14:10:31.718Z,12.60
2019-03-29T14:15:33.197Z,12.60
2019-03-29T14:20:34.871Z,12.70
2019-03-29T14:25:36.349Z,12.60
2019-03-29T14:30:38.042Z,12.60
2019-03-29T14:35:39.542Z,12.60
2019-03-29T14:40:40.999Z,12.80
2019-03-29T14:45:42.486Z,12.70
2019-03-29T14:50:44.197Z,12.60
2019-03-29T14:55:45.651Z,12.60
2019-03-29T15:00:48.767Z,12.60
2019-03-29T15:05:50.706Z,12.50
2019-03-29T15:10:52.172Z,12.50
2019-03-29T15:15:53.875Z,12.60
2019-03-29T15:20:55.462Z,12.70
2019-03-29T15:25:57.099Z,12.70
2019-03-29T15:30:58.825Z,12.70
2019-03-29T15:36:00.651Z,12.60
2019-03-29T15:41:03.571Z,12.50
2019-03-29T15:46:05.526Z,12.40
2019-03-29T15:51:07.429Z,12.50
2019-03-29T15:56:08.989Z,12.30
2019-03-29T16:01:10.479Z,12.60
2019-03-29T16:06:12.039Z,12.70
2019-03-29T16:11:17.143Z,12.60
2019-03-29T16:16:16.900Z,12.30
2019-03-29T16:21:18.394Z,12.30
2019-03-29T16:26:19.845Z,12.20
2019-03-29T16:31:22.045Z,12.20
2019-03-29T16:36:23.520Z,12.10
2019-03-29T16:41:24.996Z,12.00
2019-03-29T16:46:26.731Z,12.00
2019-03-29T16:51:28.584Z,12.00
2019-03-29T16:56:30.089Z,11.90
2019-03-29T17:01:31.648Z,11.80
2019-03-29T17:06:33.221Z,11.70
2019-03-29T17:11:34.892Z,11.70
2019-03-29T17:16:36.769Z,11.60
2019-03-29T17:21:38.347Z,11.60
2019-03-29T17:26:40.283Z,11.50
2019-03-29T17:31:42.263Z,11.50
2019-03-29T17:36:43.727Z,11.40
2019-03-29T17:41:45.241Z,11.40
2019-03-29T17:46:46.977Z,11.30
2019-03-29T17:51:48.687Z,11.20
2019-03-29T17:56:50.243Z,11.20
2019-03-29T18:01:51.759Z,11.20
2019-03-29T18:06:53.226Z,11.10
2019-03-29T18:11:54.693Z,11.00
2019-03-29T18:16:56.225Z,11.00
2019-03-29T18:21:58.147Z,10.90
2019-03-29T18:26:59.656Z,10.80
2019-03-29T18:32:02.430Z,10.80
2019-03-29T18:37:05.660Z,10.80
2019-03-29T18:42:07.527Z,10.60
2019-03-29T18:47:09.259Z,10.50
2019-03-29T18:52:10.728Z,10.30
2019-03-29T18:57:12.226Z,9.90
2019-03-29T19:02:13.976Z,9.50
2019-03-29T19:07:21.587Z,9.40
2019-03-29T19:12:23.143Z,9.00
2019-03-29T19:17:24.673Z,8.80
2019-03-29T19:22:26.350Z,8.70
2019-03-29T19:27:28.003Z,8.40
2019-03-29T19:32:29.948Z,8.10
2019-03-29T19:37:31.813Z,8.00
2019-03-29T19:42:34.308Z,7.90
2019-03-29T19:47:35.813Z,7.60
2019-03-29T19:52:37.654Z,7.60
2019-03-29T19:57:39.179Z,7.30
2019-03-29T20:02:41.631Z,7.20
2019-03-29T20:07:43.581Z,7.10
2019-03-29T20:12:45.091Z,6.90
2019-03-29T20:17:46.858Z,6.80
2019-03-29T20:22:48.436Z,6.70
2019-03-29T20:27:50.014Z,6.60
2019-03-29T20:32:51.683Z,6.50
2019-03-29T20:37:53.508Z,6.40
2019-03-29T20:42:55.421Z,6.30
2019-03-29T20:47:57.353Z,6.20
2019-03-29T20:52:59.075Z,6.20
2019-03-29T20:58:00.676Z,6.20
2019-03-29T21:03:02.157Z,6.00
2019-03-29T21:08:03.674Z,6.00
2019-03-29T21:13:07.091Z,5.90
2019-03-29T21:18:08.862Z,5.80
2019-03-29T21:23:10.608Z,5.70
2019-03-29T21:28:12.353Z,5.60
2019-03-29T21:33:13.973Z,5.50
2019-03-29T21:38:15.985Z,5.50
2019-03-29T21:43:17.792Z,5.40
2019-03-29T21:48:28.601Z,5.40
2019-03-29T21:53:22.668Z,5.30
2019-03-29T21:58:24.180Z,5.20
2019-03-29T22:03:26.015Z,5.20
2019-03-29T22:08:27.698Z,5.20
2019-03-29T22:13:29.600Z,5.10
2019-03-29T22:18:37.903Z,5.00
2019-03-29T22:23:34.820Z,4.90
2019-03-29T22:28:36.670Z,4.90
2019-03-29T22:33:38.467Z,4.80
2019-03-29T22:38:39.977Z,4.80
2019-03-29T22:43:41.523Z,4.70
2019-03-29T22:48:52.346Z,4.60
2019-03-29T22:53:46.375Z,4.60
2019-03-29T22:58:47.966Z,4.50
2019-03-29T23:03:49.750Z,4.50
2019-03-29T23:08:51.213Z,4.30
2019-03-29T23:13:52.687Z,4.40
2019-03-29T23:19:05.944Z,4.30
2019-03-29T23:23:58.720Z,4.20
2019-03-29T23:29:00.186Z,4.10
2019-03-29T23:34:01.725Z,4.00
2019-03-29T23:39:04.898Z,4.10
2019-03-29T23:44:06.709Z,4.10
2019-03-29T23:49:20.311Z,4.00
2019-03-29T23:54:11.892Z,4.00
2019-03-29T23:59:13.354Z,3.80
